createdAt,value
2023-01-05T00:02:12.613Z,9.16
2023-01-05T00:04:39.134Z,9.10
2023-01-05T00:07:05.672Z,9.07
2023-01-05T00:09:32.129Z,9.08
2023-01-05T00:12:17.407Z,9.00
2023-01-05T00:15:02.696Z,9.06
2023-01-05T00:17:47.766Z,9.07
2023-01-05T00:20:38.085Z,9.02
2023-01-05T00:23:04.584Z,9.09
2023-01-05T00:25:33.997Z,9.09
2023-01-05T00:28:00.645Z,9.04
2023-01-05T00:30:29.256Z,8.99
2023-01-05T00:32:55.808Z,8.98
2023-01-05T00:35:22.414Z,9.02
2023-01-05T00:37:49.918Z,8.91
2023-01-05T00:40:18.003Z,8.94
2023-01-05T00:42:44.606Z,8.86
2023-01-05T00:45:12.922Z,8.82
2023-01-05T00:47:39.491Z,8.95
2023-01-05T00:50:06.592Z,8.87
2023-01-05T00:52:33.075Z,8.98
2023-01-05T00:54:59.573Z,8.89
2023-01-05T00:57:26.379Z,8.88
2023-01-05T00:59:52.865Z,8.93
2023-01-05T01:02:19.463Z,8.84
2023-01-05T01:04:45.989Z,8.87
2023-01-05T01:07:12.468Z,8.86
2023-01-05T01:09:40.545Z,8.75
2023-01-05T01:12:07.114Z,8.76
2023-01-05T01:14:33.603Z,8.72
2023-01-05T01:17:00.179Z,8.67
2023-01-05T01:19:27.179Z,8.68
2023-01-05T01:21:53.718Z,8.69
2023-01-05T01:24:24.687Z,8.66
2023-01-05T01:26:51.345Z,8.67
2023-01-05T01:29:17.827Z,8.58
2023-01-05T01:31:45.175Z,8.52
2023-01-05T01:34:11.655Z,8.53
2023-01-05T01:36:38.132Z,8.52
2023-01-05T01:39:04.647Z,8.49
2023-01-05T01:41:31.111Z,8.46
2023-01-05T01:43:57.637Z,8.45
2023-01-05T01:46:24.762Z,8.43
2023-01-05T01:49:05.807Z,8.41
2023-01-05T01:51:34.477Z,8.36
2023-01-05T01:54:02.962Z,8.44
2023-01-05T01:56:32.749Z,8.45
2023-01-05T01:58:59.206Z,8.41
2023-01-05T02:01:25.759Z,8.43
2023-01-05T02:03:52.342Z,8.39
2023-01-05T02:06:18.877Z,8.39
2023-01-05T02:08:45.344Z,8.43
2023-01-05T02:11:21.926Z,8.36
2023-01-05T02:14:26.224Z,8.35
2023-01-05T02:17:11.828Z,8.41
2023-01-05T02:20:05.917Z,8.49
2023-01-05T02:22:53.727Z,8.46
2023-01-05T02:25:29.277Z,8.49
2023-01-05T02:28:24.050Z,8.57
2023-01-05T02:31:07.470Z,8.52
2023-01-05T02:34:07.673Z,8.53
2023-01-05T02:36:47.028Z,8.58
2023-01-05T02:39:32.390Z,8.55
2023-01-05T02:42:26.864Z,8.54
2023-01-05T02:44:53.356Z,8.57
2023-01-05T02:47:26.001Z,8.60
2023-01-05T02:49:56.950Z,8.62
2023-01-05T02:52:23.426Z,8.62
2023-01-05T02:55:01.023Z,8.62
2023-01-05T02:57:50.532Z,8.64
2023-01-05T03:00:40.951Z,8.62
2023-01-05T03:03:11.203Z,8.58
2023-01-05T03:05:41.657Z,8.58
2023-01-05T03:08:08.064Z,8.70
2023-01-05T03:11:02.467Z,8.57
2023-01-05T03:13:41.264Z,8.56
2023-01-05T03:16:09.265Z,8.63
2023-01-05T03:18:55.790Z,8.56
2023-01-05T03:21:22.625Z,8.66
2023-01-05T03:24:07.735Z,8.61
2023-01-05T03:26:52.891Z,8.51
2023-01-05T03:29:37.867Z,8.52
2023-01-05T03:32:41.926Z,8.55
2023-01-05T03:35:29.677Z,8.51
2023-01-05T03:37:59.696Z,8.49
2023-01-05T03:40:29.363Z,8.47
2023-01-05T03:42:55.928Z,8.42
2023-01-05T03:45:23.197Z,8.43
2023-01-05T03:47:50.273Z,8.38
2023-01-05T03:50:16.831Z,8.43
2023-01-05T03:52:43.314Z,8.36
2023-01-05T03:55:09.876Z,8.28
2023-01-05T03:57:36.361Z,8.34
2023-01-05T04:00:04.008Z,8.19
2023-01-05T04:02:30.661Z,8.19
2023-01-05T04:04:57.201Z,8.15
2023-01-05T04:07:23.697Z,8.18
2023-01-05T04:09:50.160Z,8.19
2023-01-05T04:12:16.632Z,8.17
2023-01-05T04:14:43.323Z,8.21
2023-01-05T04:17:09.852Z,8.11
2023-01-05T04:19:36.387Z,8.17
2023-01-05T04:22:02.883Z,8.11
2023-01-05T04:24:29.335Z,8.12
2023-01-05T04:26:55.829Z,8.11
2023-01-05T04:29:22.339Z,8.07
2023-01-05T04:31:48.840Z,8.10
2023-01-05T04:34:15.600Z,8.05
2023-01-05T04:36:42.270Z,8.04
2023-01-05T04:39:08.748Z,8.11
2023-01-05T04:41:35.226Z,8.16
2023-01-05T04:44:01.700Z,8.09
2023-01-05T04:46:28.427Z,8.06
2023-01-05T04:48:54.959Z,8.12
2023-01-05T04:51:21.756Z,8.10
2023-01-05T04:53:48.240Z,8.09
2023-01-05T04:56:14.724Z,8.06
2023-01-05T04:58:41.205Z,8.17
2023-01-05T05:01:07.752Z,8.11
2023-01-05T05:03:34.324Z,8.06
2023-01-05T05:06:00.918Z,8.08
2023-01-05T05:08:27.447Z,8.07
2023-01-05T05:10:53.917Z,8.11
2023-01-05T05:13:20.393Z,8.05
2023-01-05T05:15:46.887Z,8.14
2023-01-05T05:18:13.421Z,8.00
2023-01-05T05:20:41.497Z,8.02
2023-01-05T05:23:08.062Z,7.98
2023-01-05T05:25:34.558Z,8.04
2023-01-05T05:28:01.041Z,7.99
2023-01-05T05:30:27.526Z,8.02
2023-01-05T05:32:54.023Z,8.07
2023-01-05T05:35:20.495Z,8.02
2023-01-05T05:37:50.136Z,8.16
2023-01-05T05:40:20.942Z,8.15
2023-01-05T05:42:47.415Z,8.13
2023-01-05T05:45:14.168Z,8.08
2023-01-05T05:47:40.653Z,8.08
2023-01-05T05:50:07.366Z,8.06
2023-01-05T05:52:34.197Z,8.10
2023-01-05T05:55:00.700Z,8.12
2023-01-05T05:57:27.205Z,8.07
2023-01-05T05:59:53.663Z,8.10
2023-01-05T06:02:20.232Z,8.06
2023-01-05T06:04:46.734Z,7.99
2023-01-05T06:07:13.217Z,8.03
2023-01-05T06:09:39.683Z,7.98
2023-01-05T06:12:06.404Z,7.98
2023-01-05T06:14:33.041Z,7.98
2023-01-05T06:17:00.595Z,7.94
2023-01-05T06:19:27.107Z,8.01
2023-01-05T06:21:53.657Z,8.03
2023-01-05T06:24:20.176Z,7.98
2023-01-05T06:26:46.698Z,8.02
2023-01-05T06:29:13.235Z,7.98
2023-01-05T06:31:39.802Z,7.97
2023-01-05T06:34:06.832Z,8.06
2023-01-05T06:36:33.320Z,8.06
2023-01-05T06:38:59.794Z,8.07
2023-01-05T06:41:26.325Z,8.07
2023-01-05T06:43:52.826Z,8.04
2023-01-05T06:46:19.319Z,8.10
2023-01-05T06:48:45.862Z,8.15
2023-01-05T06:51:12.419Z,8.11
2023-01-05T06:53:38.913Z,8.10
2023-01-05T06:56:05.604Z,8.04
2023-01-05T06:58:32.095Z,8.10
2023-01-05T07:00:58.591Z,8.07
2023-01-05T07:03:25.187Z,7.96
2023-01-05T07:05:51.858Z,8.04
2023-01-05T07:08:18.340Z,8.08
2023-01-05T07:10:44.825Z,8.07
2023-01-05T07:13:11.312Z,8.03
2023-01-05T07:15:37.820Z,8.06
2023-01-05T07:18:05.370Z,8.12
2023-01-05T07:20:31.839Z,8.08
2023-01-05T07:22:58.310Z,8.02
2023-01-05T07:25:24.822Z,8.02
2023-01-05T07:27:52.216Z,8.08
2023-01-05T07:30:18.766Z,8.14
2023-01-05T07:32:45.329Z,8.11
2023-01-05T07:35:11.816Z,8.06
2023-01-05T07:37:38.267Z,7.99
2023-01-05T07:40:05.257Z,7.94
2023-01-05T07:42:31.819Z,7.98
2023-01-05T07:44:58.301Z,7.98
2023-01-05T07:47:24.768Z,8.01
2023-01-05T07:49:51.510Z,8.01
2023-01-05T07:52:18.263Z,7.97
2023-01-05T07:54:45.286Z,7.93
2023-01-05T07:57:11.788Z,7.94
2023-01-05T07:59:38.401Z,7.99
2023-01-05T08:02:05.012Z,7.94
2023-01-05T08:04:31.613Z,8.09
2023-01-05T08:06:58.393Z,7.95
2023-01-05T08:09:43.616Z,8.03
2023-01-05T08:12:10.090Z,8.03
2023-01-05T08:14:36.572Z,7.97
2023-01-05T08:17:03.088Z,8.07
2023-01-05T08:19:29.586Z,7.99
2023-01-05T08:21:56.208Z,8.03
2023-01-05T08:24:23.452Z,8.04
2023-01-05T08:26:51.001Z,8.09
2023-01-05T08:29:17.561Z,7.97
2023-01-05T08:31:44.083Z,8.06
2023-01-05T08:34:10.623Z,8.08
2023-01-05T08:36:37.118Z,8.06
2023-01-05T08:39:03.904Z,8.05
2023-01-05T08:41:35.745Z,8.02
2023-01-05T08:44:04.418Z,8.03
2023-01-05T08:46:35.598Z,7.98
2023-01-05T08:49:03.503Z,8.06
2023-01-05T08:51:30.014Z,8.10
2023-01-05T08:53:56.565Z,8.10
2023-01-05T08:56:25.018Z,8.05
2023-01-05T08:58:52.737Z,8.11
2023-01-05T09:01:19.486Z,8.11
2023-01-05T09:03:46.088Z,8.18
2023-01-05T09:06:12.776Z,8.11
2023-01-05T09:08:40.223Z,8.12
2023-01-05T09:11:14.892Z,8.14
2023-01-05T09:13:42.035Z,8.12
2023-01-05T09:16:10.258Z,8.12
2023-01-05T09:18:37.092Z,8.18
2023-01-05T09:21:04.151Z,8.12
2023-01-05T09:23:30.662Z,8.19
2023-01-05T09:25:57.204Z,8.19
2023-01-05T09:28:23.762Z,8.17
2023-01-05T09:30:50.945Z,8.23
2023-01-05T09:33:17.793Z,8.19
2023-01-05T09:35:44.284Z,8.22
2023-01-05T09:38:11.025Z,8.21
2023-01-05T09:40:40.325Z,8.22
2023-01-05T09:43:06.837Z,8.27
2023-01-05T09:45:33.338Z,8.32
2023-01-05T09:47:59.860Z,8.31
2023-01-05T09:50:27.738Z,8.32
2023-01-05T09:52:56.223Z,8.29
2023-01-05T09:55:23.674Z,8.25
2023-01-05T09:58:11.906Z,8.25
2023-01-05T10:00:40.562Z,8.24
2023-01-05T10:03:12.968Z,8.15
2023-01-05T10:05:45.426Z,8.19
2023-01-05T10:08:32.623Z,8.15
2023-01-05T10:11:22.315Z,8.10
2023-01-05T10:13:59.418Z,8.15
2023-01-05T10:16:29.437Z,8.09
2023-01-05T10:18:56.379Z,8.18
2023-01-05T10:21:51.049Z,8.22
2023-01-05T10:24:39.813Z,8.19
2023-01-05T10:27:25.840Z,8.20
2023-01-05T10:30:22.870Z,8.28
2023-01-05T10:37:06.170Z,8.31
2023-01-05T10:39:52.531Z,8.35
2023-01-05T10:42:43.495Z,8.33
2023-01-05T10:45:11.498Z,8.31
2023-01-05T10:47:38.027Z,8.31
2023-01-05T10:50:07.045Z,8.29
2023-01-05T10:52:33.837Z,8.24
2023-01-05T10:55:01.143Z,8.19
2023-01-05T10:57:36.672Z,8.14
2023-01-05T11:00:11.767Z,8.18
2023-01-05T11:02:40.177Z,8.16
2023-01-05T11:05:09.757Z,8.17
2023-01-05T11:07:51.476Z,8.10
2023-01-05T11:10:26.317Z,8.12
2023-01-05T11:13:17.040Z,8.22
2023-01-05T11:15:45.962Z,8.23
2023-01-05T11:18:47.012Z,8.29
2023-01-05T11:21:27.834Z,8.36
2023-01-05T11:23:58.430Z,8.42
2023-01-05T11:26:35.349Z,8.40
2023-01-05T11:29:14.900Z,8.44
2023-01-05T11:32:01.133Z,8.48
2023-01-05T11:34:33.569Z,8.59
2023-01-05T11:37:23.140Z,8.71
2023-01-05T11:39:51.655Z,8.77
2023-01-05T11:42:24.881Z,8.73
2023-01-05T11:44:57.042Z,8.73
2023-01-05T11:47:39.470Z,8.81
2023-01-05T11:50:10.163Z,8.82
2023-01-05T11:52:42.748Z,8.87
2023-01-05T11:55:24.973Z,8.81
2023-01-05T11:57:59.446Z,8.77
2023-01-05T12:00:28.076Z,8.76
2023-01-05T12:03:32.499Z,8.71
2023-01-05T12:05:59.279Z,8.72
2023-01-05T12:08:51.004Z,8.73
2023-01-05T12:11:19.225Z,8.69
2023-01-05T12:13:52.854Z,8.67
2023-01-05T12:16:22.271Z,8.64
2023-01-05T12:19:09.871Z,8.72
2023-01-05T12:21:43.429Z,8.70
2023-01-05T12:24:48.871Z,8.73
2023-01-05T12:27:26.854Z,8.79
2023-01-05T12:32:48.077Z,8.88
2023-01-05T12:36:26.303Z,8.93
2023-01-05T12:39:34.273Z,8.81
2023-01-05T12:42:15.758Z,8.72
2023-01-05T12:45:13.320Z,8.73
2023-01-05T12:47:56.146Z,8.81
2023-01-05T12:50:35.929Z,8.85
2023-01-05T12:53:40.364Z,8.83
2023-01-05T12:56:28.531Z,8.80
2023-01-05T12:59:09.389Z,8.77
2023-01-05T13:02:01.166Z,8.76
2023-01-05T13:04:56.284Z,8.77
2023-01-05T13:07:52.435Z,8.74
2023-01-05T13:10:24.203Z,8.81
2023-01-05T13:12:56.842Z,8.73
2023-01-05T13:15:37.521Z,8.69
2023-01-05T13:18:06.706Z,8.62
2023-01-05T13:20:37.110Z,8.64
2023-01-05T13:23:06.722Z,8.62
2023-01-05T13:25:38.812Z,8.57
2023-01-05T13:30:34.832Z,8.65
2023-01-05T13:33:23.147Z,8.71
2023-01-05T13:36:24.980Z,8.62
2023-01-05T13:39:06.642Z,8.65
2023-01-05T13:42:10.975Z,8.67
2023-01-05T13:45:06.916Z,8.62
2023-01-05T13:47:56.593Z,8.59
2023-01-05T13:50:47.952Z,8.55
2023-01-05T13:53:25.526Z,8.46
2023-01-05T13:55:54.158Z,8.51
2023-01-05T13:58:26.999Z,8.46
2023-01-05T14:00:53.570Z,8.44
2023-01-05T14:03:27.318Z,8.36
2023-01-05T14:05:57.964Z,8.32
2023-01-05T14:08:36.011Z,8.16
2023-01-05T14:11:09.815Z,8.06
2023-01-05T14:13:40.535Z,8.08
2023-01-05T14:16:38.415Z,8.06
2023-01-05T14:19:37.120Z,8.09
2023-01-05T14:22:25.127Z,8.09
2023-01-05T14:24:54.270Z,8.06
2023-01-05T14:27:23.405Z,8.13
2023-01-05T14:32:34.701Z,8.10
2023-01-05T14:35:30.952Z,8.20
2023-01-05T14:38:00.360Z,8.19
2023-01-05T14:40:45.846Z,8.14
2023-01-05T14:43:21.448Z,8.22
2023-01-05T14:46:14.540Z,8.21
2023-01-05T14:48:59.382Z,8.15
2023-01-05T14:51:28.911Z,8.17
2023-01-05T14:53:57.229Z,8.16
2023-01-05T14:56:28.201Z,8.17
2023-01-05T14:58:57.595Z,8.21
2023-01-05T15:01:46.916Z,8.08
2023-01-05T15:04:33.563Z,8.18
2023-01-05T15:07:31.409Z,8.15
2023-01-05T15:10:29.714Z,8.16
2023-01-05T15:13:03.645Z,8.18
2023-01-05T15:15:49.471Z,8.10
2023-01-05T15:18:44.433Z,8.25
2023-01-05T15:21:26.856Z,8.27
2023-01-05T15:24:30.298Z,8.15
2023-01-05T15:27:23.215Z,8.27
2023-01-05T15:30:01.594Z,8.26
2023-01-05T15:32:31.136Z,8.17
2023-01-05T15:35:19.066Z,8.13
2023-01-05T15:37:48.189Z,8.15
2023-01-05T15:40:14.557Z,8.19
2023-01-05T15:42:41.715Z,8.13
2023-01-05T15:45:15.024Z,8.12
2023-01-05T15:47:41.498Z,8.15
2023-01-05T15:50:15.297Z,8.14
2023-01-05T15:52:41.756Z,8.10
2023-01-05T15:55:11.281Z,8.16
2023-01-05T15:57:37.776Z,8.11
2023-01-05T16:00:22.664Z,8.03
2023-01-05T16:02:49.432Z,8.03
2023-01-05T16:05:23.837Z,8.11
2023-01-05T16:07:53.643Z,8.07
2023-01-05T16:10:28.897Z,8.12
2023-01-05T16:13:04.793Z,8.17
2023-01-05T16:15:32.888Z,8.09
2023-01-05T16:17:59.611Z,8.06
2023-01-05T16:20:26.258Z,8.07
2023-01-05T16:23:04.619Z,8.10
2023-01-05T16:25:39.584Z,8.14
2023-01-05T16:28:08.982Z,8.06
2023-01-05T16:30:42.913Z,8.11
2023-01-05T16:33:12.665Z,8.17
2023-01-05T16:35:43.234Z,8.08
2023-01-05T16:38:09.711Z,8.22
2023-01-05T16:40:37.290Z,8.12
2023-01-05T16:43:03.834Z,8.12
2023-01-05T16:45:33.420Z,8.12
2023-01-05T16:47:59.905Z,8.16
2023-01-05T16:50:29.309Z,8.05
2023-01-05T16:52:56.635Z,7.98
2023-01-05T16:55:35.711Z,8.09
2023-01-05T16:58:03.578Z,8.11
2023-01-05T17:00:39.347Z,8.08
2023-01-05T17:03:26.657Z,8.01
2023-01-05T17:05:53.170Z,8.00
2023-01-05T17:08:20.495Z,7.96
2023-01-05T17:10:47.021Z,8.00
2023-01-05T17:13:15.759Z,8.04
2023-01-05T17:15:46.172Z,8.01
2023-01-05T17:18:16.051Z,8.00
2023-01-05T17:20:42.592Z,8.14
2023-01-05T17:23:29.765Z,8.12
2023-01-05T17:25:59.758Z,8.09
2023-01-05T17:28:26.267Z,7.98
2023-01-05T17:30:52.840Z,8.00
2023-01-05T17:33:19.349Z,8.10
2023-01-05T17:38:17.578Z,8.08
2023-01-05T17:40:44.078Z,8.09
2023-01-05T17:43:10.608Z,7.99
2023-01-05T17:45:38.721Z,7.98
2023-01-05T17:48:05.306Z,7.98
2023-01-05T17:53:04.442Z,7.95
2023-01-05T17:55:31.118Z,7.92
2023-01-05T17:57:57.798Z,8.03
2023-01-05T18:00:25.454Z,7.96
2023-01-05T18:02:52.437Z,7.96
2023-01-05T18:05:18.975Z,8.02
2023-01-05T18:07:45.701Z,7.99
2023-01-05T18:10:23.816Z,7.98
2023-01-05T18:12:51.746Z,7.87
2023-01-05T18:15:18.361Z,7.95
2023-01-05T18:17:44.874Z,7.84
2023-01-05T18:20:13.679Z,7.78
2023-01-05T18:22:40.252Z,7.65
2023-01-05T18:27:38.926Z,7.53
2023-01-05T18:30:06.452Z,7.68
2023-01-05T18:32:32.974Z,7.39
2023-01-05T18:34:59.480Z,7.37
2023-01-05T18:39:57.416Z,7.06
2023-01-05T18:42:24.207Z,6.94
2023-01-05T18:44:50.684Z,7.17
2023-01-05T18:47:17.172Z,7.10
2023-01-05T18:49:43.637Z,6.89
2023-01-05T18:52:10.395Z,6.74
2023-01-05T18:54:36.936Z,6.82
2023-01-05T18:57:03.571Z,6.64
2023-01-05T18:59:30.132Z,6.51
2023-01-05T19:01:56.952Z,6.54
2023-01-05T19:04:23.510Z,6.58
2023-01-05T19:06:49.981Z,6.57
2023-01-05T19:09:16.518Z,6.58
2023-01-05T19:11:44.461Z,6.62
2023-01-05T19:14:11.030Z,6.38
2023-01-05T19:16:37.556Z,6.31
2023-01-05T19:19:08.435Z,6.40
2023-01-05T19:21:37.349Z,6.49
2023-01-05T19:24:04.398Z,6.40
2023-01-05T19:26:31.637Z,6.55
2023-01-05T19:29:01.949Z,6.55
2023-01-05T19:31:29.047Z,6.47
2023-01-05T19:33:58.802Z,6.44
2023-01-05T19:36:25.888Z,6.61
2023-01-05T19:38:52.374Z,6.66
2023-01-05T19:41:21.750Z,6.84
2023-01-05T19:43:52.137Z,6.72
2023-01-05T19:46:19.897Z,6.91
2023-01-05T19:48:46.758Z,6.96
2023-01-05T19:51:20.489Z,6.90
2023-01-05T19:53:55.504Z,6.87
2023-01-05T19:56:23.102Z,6.85
2023-01-05T19:58:55.315Z,6.92
2023-01-05T20:01:22.493Z,7.00
2023-01-05T20:03:49.055Z,6.94
2023-01-05T20:06:21.007Z,7.07
2023-01-05T20:08:52.520Z,7.11
2023-01-05T20:11:36.116Z,7.16
2023-01-05T20:14:02.851Z,7.21
2023-01-05T20:16:29.391Z,7.14
2023-01-05T20:18:55.914Z,7.15
2023-01-05T20:21:22.384Z,7.13
2023-01-05T20:23:48.875Z,7.14
2023-01-05T20:26:19.976Z,7.37
2023-01-05T20:28:46.607Z,7.30
2023-01-05T20:31:21.948Z,7.24
2023-01-05T20:33:48.948Z,7.21
2023-01-05T20:36:15.405Z,7.19
2023-01-05T20:38:41.893Z,7.36
2023-01-05T20:41:16.125Z,7.27
2023-01-05T20:43:44.124Z,7.23
2023-01-05T20:46:10.805Z,7.23
2023-01-05T20:48:37.349Z,7.31
2023-01-05T20:51:08.681Z,7.29
2023-01-05T20:53:35.247Z,7.31
2023-01-05T20:56:06.422Z,7.32
2023-01-05T20:58:33.849Z,7.33
2023-01-05T21:01:10.576Z,7.30
2023-01-05T21:03:37.925Z,7.30
2023-01-05T21:06:05.405Z,7.29
2023-01-05T21:08:31.963Z,7.28
2023-01-05T21:10:59.475Z,7.24
2023-01-05T21:13:31.307Z,7.21
2023-01-05T21:16:04.644Z,7.21
2023-01-05T21:18:31.835Z,7.20
2023-01-05T21:20:58.420Z,7.19
2023-01-05T21:23:24.887Z,7.18
2023-01-05T21:26:06.291Z,7.18
2023-01-05T21:28:35.881Z,7.15
2023-01-05T21:31:04.022Z,7.17
2023-01-05T21:33:30.725Z,7.34
2023-01-05T21:35:57.209Z,7.37
2023-01-05T21:38:24.619Z,7.42
2023-01-05T21:40:51.238Z,7.44
2023-01-05T21:43:17.782Z,7.40
2023-01-05T21:45:44.361Z,7.38
2023-01-05T21:48:10.895Z,7.34
2023-01-05T21:50:57.911Z,7.42
2023-01-05T21:53:42.778Z,7.38
2023-01-05T21:56:28.702Z,7.38
2023-01-05T21:58:56.017Z,7.30
2023-01-05T22:01:23.312Z,7.36
2023-01-05T22:03:50.005Z,7.34
2023-01-05T22:06:16.716Z,7.32
2023-01-05T22:08:43.202Z,7.32
2023-01-05T22:11:09.754Z,7.28
2023-01-05T22:13:37.470Z,7.29
2023-01-05T22:16:04.984Z,7.34
2023-01-05T22:18:31.476Z,7.32
2023-01-05T22:20:59.087Z,7.32
2023-01-05T22:23:27.190Z,7.36
2023-01-05T22:26:08.486Z,7.30
2023-01-05T22:28:35.959Z,7.22
2023-01-05T22:31:10.141Z,7.29
2023-01-05T22:33:38.185Z,7.37
2023-01-05T22:36:05.540Z,7.33
2023-01-05T22:38:34.423Z,7.33
2023-01-05T22:41:00.921Z,7.33
2023-01-05T22:43:27.557Z,7.37
2023-01-05T22:46:02.910Z,7.38
2023-01-05T22:48:34.404Z,7.36
2023-01-05T22:51:12.348Z,7.33
2023-01-05T22:53:39.022Z,7.35
2023-01-05T22:56:05.734Z,7.43
2023-01-05T22:58:32.260Z,7.42
2023-01-05T23:01:24.946Z,7.46
2023-01-05T23:03:51.823Z,7.47
2023-01-05T23:06:20.008Z,7.52
2023-01-05T23:08:46.933Z,7.50
2023-01-05T23:11:24.580Z,7.48
2023-01-05T23:13:51.912Z,7.53
2023-01-05T23:16:18.490Z,7.56
2023-01-05T23:18:45.049Z,7.51
2023-01-05T23:21:12.825Z,7.52
2023-01-05T23:23:39.492Z,7.52
2023-01-05T23:26:06.872Z,7.51
2023-01-05T23:28:33.635Z,7.57
2023-01-05T23:31:00.447Z,7.53
2023-01-05T23:33:28.392Z,7.48
2023-01-05T23:35:54.951Z,7.50
2023-01-05T23:38:22.308Z,7.52
2023-01-05T23:40:50.794Z,7.47
2023-01-05T23:43:19.080Z,7.51
2023-01-05T23:45:45.777Z,7.46
2023-01-05T23:48:12.405Z,7.49
2023-01-05T23:50:43.369Z,7.44
2023-01-05T23:53:09.919Z,7.55
2023-01-05T23:55:36.608Z,7.45
2023-01-05T23:58:03.188Z,7.39
